Time;durP1;ratioP1;P1;durP2;ratioP2;P2;SDS_P1;SDS_P2;PMS_P1;PMS_P2;Temp;Humidity;BMP_temperature;BMP_pressure;BME280_temperature;BME280_humidity;BME280_pressure;Samples;Min_cycle;Max_cycle;Signal;HPM_P1;HPM_P2
2021/03/11 00:00:35;;;;;;;30.03;16.53;;;6.80;93.60;;;;;;4895832;29;20128;-72
2021/03/11 00:03:11;;;;;;;25.60;14.70;;;6.80;93.60;;;;;;4881265;29;20047;-71
2021/03/11 00:05:39;;;;;;;26.93;15.13;;;6.80;93.50;;;;;;4897362;29;20051;-73
2021/03/11 00:08:07;;;;;;;32.13;16.02;;;6.80;93.50;;;;;;4897754;29;20055;-75
2021/03/11 00:10:38;;;;;;;29.27;16.50;;;6.80;93.50;;;;;;4896211;29;20056;-74
2021/03/11 00:13:07;;;;;;;29.87;16.13;;;6.80;93.40;;;;;;4887868;29;20417;-75
2021/03/11 00:15:34;;;;;;;27.00;15.50;;;6.80;93.40;;;;;;4888076;29;20374;-77
2021/03/11 00:18:03;;;;;;;26.00;15.47;;;6.80;93.40;;;;;;4881195;29;20089;-76
2021/03/11 00:20:31;;;;;;;28.10;15.17;;;6.80;93.40;;;;;;4896530;29;20104;-76
2021/03/11 00:22:58;;;;;;;26.33;14.05;;;6.90;93.40;;;;;;4897524;29;20048;-76
2021/03/11 00:25:27;;;;;;;27.03;14.00;;;6.90;93.40;;;;;;4896915;29;20092;-75
2021/03/11 00:27:54;;;;;;;26.40;13.20;;;6.90;93.30;;;;;;4898514;29;20048;-75
2021/03/11 00:30:22;;;;;;;29.27;16.03;;;6.90;93.30;;;;;;4896256;29;20049;-76
2021/03/11 00:32:49;;;;;;;28.85;14.45;;;6.90;93.30;;;;;;4897236;29;20040;-76
2021/03/11 00:35:16;;;;;;;25.63;14.67;;;6.90;93.30;;;;;;4870650;29;20386;-76
2021/03/11 00:37:43;;;;;;;28.67;15.30;;;6.90;93.50;;;;;;4894755;29;20041;-75
2021/03/11 00:40:12;;;;;;;26.27;15.13;;;6.90;93.20;;;;;;4896210;29;20052;-77
2021/03/11 00:42:38;;;;;;;33.13;16.80;;;6.90;93.20;;;;;;4896205;29;20067;-71
2021/03/11 00:45:06;;;;;;;28.83;16.37;;;6.90;93.20;;;;;;4897252;29;20049;-72
2021/03/11 00:47:33;;;;;;;29.20;15.20;;;6.90;93.20;;;;;;4896052;29;20052;-71
2021/03/11 00:50:00;;;;;;;29.07;14.50;;;6.90;93.20;;;;;;4900033;29;20055;-75
2021/03/11 00:52:27;;;;;;;25.50;14.63;;;6.90;93.20;;;;;;4899745;29;20080;-77
2021/03/11 00:54:54;;;;;;;31.50;15.77;;;7.00;93.20;;;;;;4884157;29;20096;-75
2021/03/11 00:57:21;;;;;;;32.63;16.52;;;7.00;93.20;;;;;;4884559;29;20055;-75
2021/03/11 00:59:47;;;;;;;27.93;15.60;;;7.00;93.10;;;;;;4898973;29;20055;-71
2021/03/11 01:02:15;;;;;;;26.03;14.73;;;7.00;93.10;;;;;;4876301;29;20055;-71
2021/03/11 01:04:42;;;;;;;29.70;15.17;;;7.00;93.00;;;;;;4898235;29;20048;-71
2021/03/11 01:07:08;;;;;;;26.53;15.00;;;7.10;93.10;;;;;;4898970;29;20170;-77
2021/03/11 01:09:35;;;;;;;27.40;14.73;;;7.10;93.00;;;;;;4899727;29;20079;-78
2021/03/11 01:12:02;;;;;;;29.63;15.80;;;7.10;93.00;;;;;;4895220;29;20049;-71
2021/03/11 01:14:28;;;;;;;29.50;14.90;;;7.10;93.00;;;;;;4869218;29;20191;-77
2021/03/11 01:16:55;;;;;;;24.63;15.53;;;7.20;93.00;;;;;;4895117;29;20429;-76
2021/03/11 01:19:21;;;;;;;25.53;15.07;;;7.20;92.90;;;;;;4900579;29;20127;-75
2021/03/11 01:21:48;;;;;;;25.10;14.63;;;7.20;92.90;;;;;;4899405;29;20048;-75
2021/03/11 01:24:16;;;;;;;23.73;13.40;;;7.30;92.90;;;;;;4899272;29;20036;-75
2021/03/11 01:26:43;;;;;;;23.57;14.03;;;7.30;92.90;;;;;;4900739;29;20485;-75
2021/03/11 01:29:10;;;;;;;23.17;13.97;;;7.30;92.80;;;;;;4900657;29;20124;-75
2021/03/11 01:31:37;;;;;;;21.75;12.93;;;7.30;92.80;;;;;;4869662;29;20516;-71
2021/03/11 01:34:04;;;;;;;24.20;14.07;;;7.30;92.80;;;;;;4909120;29;20102;-71
2021/03/11 01:36:30;;;;;;;22.92;13.45;;;7.40;92.90;;;;;;4897738;29;20067;-71
2021/03/11 01:38:56;;;;;;;25.02;14.30;;;7.40;92.90;;;;;;4912852;29;20568;-71
2021/03/11 01:41:23;;;;;;;21.25;13.20;;;7.40;92.90;;;;;;4882114;29;20052;-71
2021/03/11 01:43:52;;;;;;;23.98;12.38;;;7.40;93.20;;;;;;4898684;29;20104;-71
2021/03/11 01:46:19;;;;;;;21.30;12.52;;;7.40;93.00;;;;;;4898902;29;20048;-71
2021/03/11 01:48:45;;;;;;;22.30;12.93;;;7.40;93.00;;;;;;4897206;29;20045;-71
2021/03/11 01:51:12;;;;;;;24.13;13.43;;;7.40;93.00;;;;;;4898846;29;20051;-71
2021/03/11 01:53:38;;;;;;;22.33;13.27;;;7.40;93.10;;;;;;4898402;29;20036;-71
2021/03/11 01:56:05;;;;;;;24.83;14.73;;;7.40;93.10;;;;;;4882245;29;20060;-71
2021/03/11 01:58:32;;;;;;;21.87;14.00;;;7.40;93.20;;;;;;4897329;29;20512;-71
2021/03/11 02:00:59;;;;;;;23.13;13.27;;;7.40;93.20;;;;;;4896833;29;20087;-71
2021/03/11 02:03:27;;;;;;;21.73;12.30;;;7.50;93.20;;;;;;4879998;29;20582;-71
2021/03/11 02:05:53;;;;;;;22.00;13.07;;;7.40;93.20;;;;;;4897933;29;20052;-71
2021/03/11 02:08:20;;;;;;;19.37;11.73;;;7.50;93.20;;;;;;4897949;29;20048;-71
2021/03/11 02:10:47;;;;;;;21.80;13.27;;;7.50;93.30;;;;;;4898562;29;20040;-71
2021/03/11 02:13:43;;;;;;;23.00;14.07;;;7.50;93.30;;;;;;4896637;29;20576;-71
2021/03/11 02:16:18;;;;;;;20.55;12.50;;;7.60;93.30;;;;;;4902153;29;20048;-76
2021/03/11 02:18:56;;;;;;;22.50;12.43;;;7.50;93.20;;;;;;4899644;29;20076;-76
2021/03/11 02:21:37;;;;;;;19.48;11.77;;;7.60;93.20;;;;;;4898189;29;20056;-76
2021/03/11 02:24:35;;;;;;;22.38;12.32;;;7.60;93.20;;;;;;4895220;29;20044;-76
2021/03/11 02:27:13;;;;;;;22.40;12.27;;;7.60;93.20;;;;;;4893325;29;20041;-76
2021/03/11 02:29:42;;;;;;;21.38;12.23;;;7.60;93.20;;;;;;4898606;29;20446;-76
2021/03/11 02:32:11;;;;;;;20.63;12.45;;;7.70;93.20;;;;;;4898535;29;20044;-76
2021/03/11 02:34:43;;;;;;;21.20;12.57;;;7.70;93.50;;;;;;4891738;29;20047;-76
2021/03/11 02:37:30;;;;;;;17.58;11.02;;;7.70;93.20;;;;;;4899423;29;20100;-76
2021/03/11 02:40:01;;;;;;;18.13;10.87;;;7.70;93.20;;;;;;4898351;29;20431;-76
2021/03/11 02:42:33;;;;;;;16.10;10.10;;;7.70;93.20;;;;;;4898036;29;20041;-76
2021/03/11 02:45:00;;;;;;;17.27;10.43;;;7.70;93.20;;;;;;4899360;29;20124;-77
2021/03/11 02:47:27;;;;;;;17.10;10.13;;;7.70;93.30;;;;;;4898277;29;20048;-77
2021/03/11 02:49:57;;;;;;;16.13;11.07;;;7.80;93.30;;;;;;4899236;29;20127;-77
2021/03/11 02:52:24;;;;;;;16.48;10.75;;;7.70;93.30;;;;;;4898082;29;20052;-77
2021/03/11 02:54:53;;;;;;;18.23;11.13;;;7.80;93.30;;;;;;4899276;29;20047;-77
2021/03/11 02:57:22;;;;;;;15.98;10.00;;;7.80;93.30;;;;;;4898885;29;20079;-77
2021/03/11 02:59:49;;;;;;;16.42;10.52;;;7.80;93.40;;;;;;4896952;29;20536;-77
2021/03/11 03:02:17;;;;;;;15.52;9.77;;;7.80;93.60;;;;;;4897425;29;20123;-72
2021/03/11 03:04:55;;;;;;;15.23;9.68;;;7.80;93.40;;;;;;4881078;29;20052;-72
2021/03/11 03:07:22;;;;;;;15.93;9.05;;;7.90;93.40;;;;;;4880354;29;20090;-71
2021/03/11 03:09:51;;;;;;;18.02;9.68;;;7.90;93.40;;;;;;4898148;29;20521;-77
2021/03/11 03:12:19;;;;;;;15.55;9.82;;;7.90;93.40;;;;;;4897196;29;20109;-72
2021/03/11 03:14:49;;;;;;;13.20;9.18;;;7.90;93.40;;;;;;4894300;29;20581;-72
2021/03/11 03:17:21;;;;;;;17.38;11.05;;;7.90;93.30;;;;;;4897866;29;20459;-77
2021/03/11 03:19:49;;;;;;;13.63;8.90;;;8.00;93.30;;;;;;4898138;29;20456;-72
2021/03/11 03:22:17;;;;;;;14.13;8.80;;;8.00;93.30;;;;;;4883264;29;20112;-78
2021/03/11 03:24:45;;;;;;;16.02;9.80;;;8.00;93.30;;;;;;4907750;29;20040;-77
2021/03/11 03:27:14;;;;;;;14.43;9.23;;;8.00;93.30;;;;;;4898665;29;20064;-78
2021/03/11 03:29:42;;;;;;;13.45;8.57;;;8.10;93.30;;;;;;4898141;29;20485;-72
2021/03/11 03:32:08;;;;;;;12.93;8.20;;;8.10;93.30;;;;;;4897255;29;20471;-78
2021/03/11 03:34:35;;;;;;;15.27;9.20;;;8.10;93.30;;;;;;4881531;29;20063;-80
2021/03/11 03:37:01;;;;;;;14.20;9.13;;;8.10;93.60;;;;;;4897190;29;20048;-79
2021/03/11 03:39:28;;;;;;;15.05;9.18;;;8.10;93.40;;;;;;4897337;29;20101;-79
2021/03/11 03:41:59;;;;;;;14.38;9.35;;;8.00;93.50;;;;;;4897929;29;20398;-79
2021/03/11 03:44:31;;;;;;;15.68;9.40;;;8.00;93.70;;;;;;4882106;29;20047;-81
2021/03/11 03:47:01;;;;;;;13.32;8.45;;;8.00;93.80;;;;;;4912594;29;20515;-78
2021/03/11 03:49:29;;;;;;;15.25;9.98;;;8.00;93.90;;;;;;4898124;29;20091;-77
2021/03/11 03:51:58;;;;;;;14.65;9.10;;;8.00;94.00;;;;;;4880001;29;20489;-72
2021/03/11 03:54:29;;;;;;;16.40;9.20;;;8.00;94.00;;;;;;4897001;29;20428;-72
2021/03/11 03:57:00;;;;;;;13.88;8.88;;;8.00;94.10;;;;;;4896384;29;20096;-73
2021/03/11 03:59:39;;;;;;;13.85;9.07;;;8.00;94.10;;;;;;4895184;29;20044;-72
2021/03/11 04:02:06;;;;;;;13.18;8.93;;;8.00;94.20;;;;;;4896703;29;20052;-72
2021/03/11 04:04:37;;;;;;;16.07;9.50;;;8.00;94.20;;;;;;4887369;29;20528;-72
2021/03/11 04:07:08;;;;;;;13.55;9.20;;;8.00;94.20;;;;;;4896660;29;20851;-72
2021/03/11 04:09:36;;;;;;;16.75;10.05;;;8.00;94.30;;;;;;4895162;29;20045;-72
2021/03/11 04:12:04;;;;;;;15.10;9.77;;;8.00;94.30;;;;;;4895909;29;20044;-73
2021/03/11 04:14:31;;;;;;;15.98;9.95;;;8.00;94.40;;;;;;4880002;29;20100;-73
2021/03/11 04:16:59;;;;;;;13.43;9.07;;;8.00;94.40;;;;;;4896404;29;20087;-72
2021/03/11 04:19:26;;;;;;;13.35;9.02;;;8.00;94.40;;;;;;4896341;29;20072;-72
2021/03/11 04:21:53;;;;;;;15.55;9.63;;;8.00;94.50;;;;;;4894994;29;20096;-72
2021/03/11 04:24:20;;;;;;;16.23;10.60;;;8.10;94.50;;;;;;4894969;29;20041;-72
2021/03/11 04:26:47;;;;;;;16.92;10.57;;;8.10;94.60;;;;;;4895316;29;20092;-72
2021/03/11 04:29:14;;;;;;;18.25;11.68;;;8.10;94.70;;;;;;4895043;29;20558;-72
2021/03/11 04:31:41;;;;;;;16.67;10.27;;;8.10;94.70;;;;;;4895112;29;20446;-71
2021/03/11 04:34:08;;;;;;;15.27;9.43;;;8.10;95.00;;;;;;4895523;29;20040;-72
2021/03/11 04:36:35;;;;;;;14.90;9.48;;;8.10;94.70;;;;;;4894463;29;20057;-72
2021/03/11 04:39:03;;;;;;;17.73;10.32;;;8.20;94.70;;;;;;4896361;29;20056;-72
2021/03/11 04:41:30;;;;;;;15.07;10.25;;;8.20;94.70;;;;;;4864285;29;20582;-72
2021/03/11 04:43:59;;;;;;;16.60;10.27;;;8.20;94.80;;;;;;4878953;29;20036;-72
2021/03/11 04:46:26;;;;;;;17.30;10.85;;;8.20;94.80;;;;;;4894825;29;20413;-72
2021/03/11 04:48:55;;;;;;;17.80;11.88;;;8.30;94.80;;;;;;4894500;29;20060;-72
2021/03/11 04:51:22;;;;;;;15.60;10.10;;;8.30;94.80;;;;;;4896261;29;20051;-72
2021/03/11 04:53:53;;;;;;;17.33;10.30;;;8.30;94.80;;;;;;4894498;29;20497;-72
2021/03/11 04:56:24;;;;;;;17.92;10.02;;;8.30;94.80;;;;;;4894908;29;20060;-72
2021/03/11 04:58:51;;;;;;;18.33;11.38;;;8.30;94.80;;;;;;4895109;29;20056;-72
2021/03/11 05:01:23;;;;;;;18.55;11.00;;;8.40;94.80;;;;;;4896315;29;20514;-75
2021/03/11 05:03:51;;;;;;;18.35;11.43;;;8.40;94.80;;;;;;4897225;29;20078;-75
2021/03/11 05:06:18;;;;;;;18.08;11.77;;;8.40;94.80;;;;;;4896435;29;20033;-75
2021/03/11 05:08:45;;;;;;;16.90;11.60;;;8.40;94.80;;;;;;4897248;29;20135;-75
2021/03/11 05:11:12;;;;;;;20.33;12.65;;;8.50;94.90;;;;;;4897233;29;20092;-75
2021/03/11 05:13:40;;;;;;;20.45;12.88;;;8.50;94.90;;;;;;4879140;29;20056;-72
2021/03/11 05:16:07;;;;;;;20.03;12.70;;;8.60;94.90;;;;;;4895559;29;20131;-75
2021/03/11 05:18:34;;;;;;;21.00;13.67;;;8.60;94.90;;;;;;4896044;29;20057;-77
2021/03/11 05:21:01;;;;;;;19.37;11.43;;;8.60;94.80;;;;;;4897174;29;20068;-75
2021/03/11 05:23:28;;;;;;;19.85;12.75;;;8.70;94.80;;;;;;4897298;29;20045;-76
2021/03/11 05:25:55;;;;;;;18.88;12.00;;;8.70;94.80;;;;;;4896019;29;20132;-75
2021/03/11 05:28:22;;;;;;;18.17;10.88;;;8.70;95.10;;;;;;4897057;29;20041;-75
2021/03/11 05:30:49;;;;;;;20.52;12.35;;;8.70;94.80;;;;;;4895824;29;20405;-76
2021/03/11 05:33:15;;;;;;;19.55;11.35;;;8.70;94.80;;;;;;4897224;29;20055;-75
2021/03/11 05:35:43;;;;;;;18.65;10.88;;;8.80;94.80;;;;;;4879434;29;20437;-75
2021/03/11 05:38:09;;;;;;;18.83;11.93;;;8.80;94.70;;;;;;4896154;29;20490;-76
2021/03/11 05:40:37;;;;;;;17.48;10.70;;;8.80;94.70;;;;;;4883734;29;20092;-76
2021/03/11 05:43:05;;;;;;;17.83;10.88;;;8.80;94.70;;;;;;4899292;29;20075;-76
2021/03/11 05:45:33;;;;;;;19.55;10.27;;;8.90;94.70;;;;;;4887431;29;20465;-76
2021/03/11 05:48:00;;;;;;;18.02;10.57;;;8.90;94.70;;;;;;4883714;29;20056;-77
2021/03/11 05:50:28;;;;;;;20.88;12.55;;;8.80;94.60;;;;;;4883478;29;20053;-78
2021/03/11 05:52:58;;;;;;;19.33;11.65;;;8.90;95.00;;;;;;4898994;29;20089;-77
2021/03/11 05:55:25;;;;;;;17.20;11.07;;;8.90;94.70;;;;;;4898835;29;20053;-77
2021/03/11 05:57:52;;;;;;;18.95;11.50;;;8.90;94.80;;;;;;4883490;29;20052;-77
2021/03/11 06:00:20;;;;;;;19.08;10.55;;;8.90;94.90;;;;;;4898553;29;20052;-72
2021/03/11 06:02:55;;;;;;;16.23;9.73;;;8.90;94.90;;;;;;4897244;29;20056;-72
2021/03/11 06:05:22;;;;;;;16.08;9.18;;;8.90;94.90;;;;;;4897597;29;20503;-72
2021/03/11 06:07:49;;;;;;;16.13;9.23;;;8.90;94.90;;;;;;4897339;29;20037;-72
2021/03/11 06:10:21;;;;;;;16.48;10.18;;;8.90;94.90;;;;;;4912946;29;20052;-72
2021/03/11 06:12:50;;;;;;;16.95;10.63;;;9.00;95.00;;;;;;4897933;29;20108;-72
2021/03/11 06:15:36;;;;;;;18.80;10.55;;;9.00;95.00;;;;;;4898748;29;20048;-78
2021/03/11 06:18:06;;;;;;;17.17;9.90;;;9.00;94.90;;;;;;4883136;29;20072;-78
2021/03/11 06:20:34;;;;;;;19.17;10.25;;;9.00;95.00;;;;;;4899511;29;20040;-77
2021/03/11 06:23:00;;;;;;;16.02;10.70;;;9.00;95.00;;;;;;4897395;29;20096;-73
2021/03/11 06:25:28;;;;;;;17.50;9.82;;;9.00;94.90;;;;;;4881665;29;20374;-73
2021/03/11 06:27:59;;;;;;;17.05;9.65;;;9.00;95.00;;;;;;4882278;29;20049;-72
2021/03/11 06:30:33;;;;;;;15.77;10.02;;;9.00;95.00;;;;;;4898216;29;20100;-72
2021/03/11 06:33:02;;;;;;;14.57;9.45;;;9.00;95.00;;;;;;4899064;29;20515;-75
2021/03/11 06:35:29;;;;;;;16.27;8.70;;;9.10;95.00;;;;;;4896943;29;20044;-72
2021/03/11 06:37:56;;;;;;;14.00;8.60;;;9.10;95.00;;;;;;4892468;29;20045;-72
2021/03/11 06:40:25;;;;;;;19.02;8.85;;;9.20;94.90;;;;;;4894683;29;20048;-72
2021/03/11 06:43:06;;;;;;;17.35;9.57;;;9.20;94.90;;;;;;4896752;29;20045;-73
2021/03/11 06:45:33;;;;;;;16.33;9.55;;;9.30;94.80;;;;;;4893264;29;20048;-73
2021/03/11 06:48:21;;;;;;;15.15;8.50;;;9.30;94.80;;;;;;4897966;29;20040;-73
2021/03/11 06:50:48;;;;;;;15.48;7.95;;;9.40;94.70;;;;;;4897749;29;20065;-73
2021/03/11 06:53:15;;;;;;;13.95;8.48;;;9.40;94.70;;;;;;4896729;29;20763;-74
2021/03/11 06:55:41;;;;;;;13.48;7.47;;;9.40;94.60;;;;;;4850253;29;20048;-73
2021/03/11 06:58:25;;;;;;;14.50;8.60;;;9.50;94.60;;;;;;4892142;29;20532;-73
2021/03/11 07:01:08;;;;;;;13.05;8.05;;;9.50;94.50;;;;;;4892199;29;20072;-73
2021/03/11 07:03:38;;;;;;;13.98;8.40;;;9.50;94.50;;;;;;4897686;29;20048;-72
2021/03/11 07:06:05;;;;;;;15.15;8.85;;;9.50;94.50;;;;;;4895567;29;20041;-72
2021/03/11 07:08:32;;;;;;;13.60;8.55;;;9.60;94.50;;;;;;4881146;29;20136;-73
2021/03/11 07:11:06;;;;;;;14.27;7.57;;;9.50;94.40;;;;;;4912068;29;20096;-72
2021/03/11 07:13:41;;;;;;;14.63;8.05;;;9.60;94.60;;;;;;4896403;29;20048;-72
2021/03/11 07:16:19;;;;;;;11.13;6.80;;;9.60;94.30;;;;;;4880662;29;20048;-72
2021/03/11 07:18:47;;;;;;;10.57;6.40;;;9.60;94.30;;;;;;4896384;29;20056;-72
2021/03/11 07:21:14;;;;;;;14.20;6.20;;;9.50;94.30;;;;;;4896156;29;20060;-72
2021/03/11 07:23:48;;;;;;;9.20;5.30;;;9.60;94.10;;;;;;4880778;29;20557;-72
2021/03/11 07:26:16;;;;;;;10.75;5.05;;;9.70;94.10;;;;;;4897408;29;20045;-72
2021/03/11 07:28:44;;;;;;;12.43;5.25;;;9.60;94.10;;;;;;4896961;29;20048;-72
2021/03/11 07:31:11;;;;;;;9.73;4.47;;;9.70;94.00;;;;;;4897063;29;20097;-72
2021/03/11 07:33:38;;;;;;;10.65;4.30;;;9.70;93.90;;;;;;4894356;29;20513;-72
2021/03/11 07:36:09;;;;;;;12.57;4.40;;;9.80;93.70;;;;;;4897296;29;20068;-73
2021/03/11 07:38:37;;;;;;;12.40;3.95;;;9.80;93.30;;;;;;4897014;29;20045;-72
2021/03/11 07:41:06;;;;;;;9.57;4.00;;;9.90;92.90;;;;;;4880580;29;20052;-72
2021/03/11 07:43:33;;;;;;;8.55;2.80;;;10.00;92.90;;;;;;4896498;29;20045;-72
2021/03/11 07:46:02;;;;;;;14.45;3.72;;;10.00;92.70;;;;;;4897284;29;20441;-72
2021/03/11 07:48:30;;;;;;;10.60;4.00;;;10.10;92.30;;;;;;4894049;29;20053;-72
2021/03/11 07:51:01;;;;;;;8.55;2.97;;;10.20;92.20;;;;;;4896468;29;20151;-72
2021/03/11 07:53:28;;;;;;;9.52;3.60;;;10.20;92.30;;;;;;4885292;29;20045;-72
2021/03/11 07:55:56;;;;;;;8.82;3.05;;;10.30;92.30;;;;;;4892207;29;20494;-73
2021/03/11 07:58:43;;;;;;;10.43;3.35;;;10.40;92.20;;;;;;4893083;29;20124;-72
2021/03/11 08:01:10;;;;;;;7.63;3.67;;;10.60;92.10;;;;;;4894697;29;20040;-73
2021/03/11 08:03:44;;;;;;;6.90;3.47;;;10.70;92.00;;;;;;4896840;29;20374;-73
2021/03/11 08:06:28;;;;;;;6.38;3.35;;;10.80;91.90;;;;;;4893013;29;20462;-72
2021/03/11 08:08:57;;;;;;;5.68;3.17;;;10.80;91.80;;;;;;4892752;29;20048;-77
2021/03/11 08:11:32;;;;;;;5.55;2.40;;;10.80;91.70;;;;;;4895729;29;20049;-73
2021/03/11 08:14:34;;;;;;;6.18;2.65;;;10.80;91.70;;;;;;4895348;29;20485;-73
2021/03/11 08:17:33;;;;;;;7.10;2.37;;;10.90;91.70;;;;;;4829271;29;20098;-74
2021/03/11 08:20:01;;;;;;;4.15;2.55;;;10.90;91.10;;;;;;4896244;29;20360;-73
2021/03/11 08:22:50;;;;;;;7.78;2.42;;;11.00;91.20;;;;;;4876544;29;20120;-72
2021/03/11 08:25:41;;;;;;;7.18;2.22;;;11.10;90.80;;;;;;4892895;29;20037;-72
2021/03/11 08:28:07;;;;;;;8.13;1.92;;;11.10;90.20;;;;;;4880026;29;20124;-73
2021/03/11 08:30:40;;;;;;;9.65;1.80;;;11.20;89.60;;;;;;4896062;29;20055;-72
2021/03/11 08:33:14;;;;;;;7.43;1.60;;;11.30;88.70;;;;;;4895091;29;20049;-72
2021/03/11 08:35:43;;;;;;;9.95;1.75;;;11.40;86.90;;;;;;4891856;29;20108;-72
2021/03/11 08:38:32;;;;;;;15.55;3.13;;;11.40;86.30;;;;;;4891790;29;20092;-72
2021/03/11 08:41:07;;;;;;;9.85;2.47;;;11.60;83.60;;;;;;4891622;29;20052;-72
2021/03/11 08:43:39;;;;;;;8.77;2.13;;;11.60;83.90;;;;;;4895250;29;20056;-72
2021/03/11 08:46:16;;;;;;;;;;;11.70;82.30;;;;;;4893407;29;20055;-72
2021/03/11 08:48:42;;;;;;;14.20;2.53;;;11.70;81.70;;;;;;4895779;29;19965;-73
2021/03/11 08:51:18;;;;;;;11.43;1.90;;;11.70;82.10;;;;;;4890113;29;20516;-72
2021/03/11 08:53:53;;;;;;;11.43;2.35;;;11.80;81.30;;;;;;4891065;29;20052;-74
2021/03/11 08:56:20;;;;;;;12.63;2.33;;;11.90;79.20;;;;;;4896334;29;20059;-73
2021/03/11 08:59:06;;;;;;;6.82;1.20;;;11.90;79.30;;;;;;4895672;29;20458;-73
2021/03/11 09:01:52;;;;;;;10.27;1.30;;;11.90;80.50;;;;;;4892795;29;20104;-74
2021/03/11 09:04:20;;;;;;;9.50;1.85;;;12.00;79.60;;;;;;4867515;29;20048;-73
2021/03/11 09:07:11;;;;;;;12.70;2.40;;;12.00;78.80;;;;;;4896238;29;20069;-73
2021/03/11 09:09:48;;;;;;;10.52;2.00;;;12.00;77.20;;;;;;4910310;29;20037;-73
2021/03/11 09:12:16;;;;;;;10.38;2.08;;;12.10;77.70;;;;;;4899859;29;20044;-73
2021/03/11 09:14:48;;;;;;;15.95;2.50;;;12.10;77.90;;;;;;4899719;29;20049;-73
2021/03/11 09:17:17;;;;;;;14.00;2.47;;;12.00;78.00;;;;;;4882907;29;20049;-73
2021/03/11 09:19:49;;;;;;;14.85;3.20;;;12.00;77.10;;;;;;4898477;29;20056;-73
2021/03/11 09:22:32;;;;;;;11.65;2.40;;;12.00;77.70;;;;;;4899879;29;20393;-73
2021/03/11 09:24:58;;;;;;;15.40;2.42;;;12.10;77.90;;;;;;4898183;29;20043;-74
2021/03/11 09:27:29;;;;;;;18.70;2.72;;;12.10;77.00;;;;;;4898314;29;20128;-74
2021/03/11 09:30:11;;;;;;;17.05;2.45;;;12.10;76.30;;;;;;4882688;29;20052;-73
2021/03/11 09:32:39;;;;;;;14.60;2.42;;;12.20;76.60;;;;;;4911809;29;20053;-76
2021/03/11 09:35:11;;;;;;;18.33;3.13;;;12.30;75.60;;;;;;4896617;29;20139;-74
2021/03/11 09:37:46;;;;;;;15.73;3.20;;;12.30;74.30;;;;;;4884175;29;20046;-73
2021/03/11 09:40:23;;;;;;;20.63;3.10;;;12.40;73.60;;;;;;4895446;29;20280;-74
2021/03/11 09:43:21;;;;;;;17.77;3.20;;;12.40;74.10;;;;;;4874920;29;20057;-73
2021/03/11 09:45:56;;;;;;;14.95;3.53;;;12.40;73.70;;;;;;4890496;29;20044;-73
2021/03/11 09:48:29;;;;;;;18.42;2.88;;;12.50;74.00;;;;;;4882933;29;20140;-78
2021/03/11 09:50:59;;;;;;;;;;;12.60;74.70;;;;;;4878868;29;20080;-73
2021/03/11 09:53:47;;;;;;;17.00;3.63;;;12.50;73.50;;;;;;4898967;29;19991;-73
2021/03/11 09:56:23;;;;;;;18.15;3.47;;;12.50;72.70;;;;;;4898580;29;20108;-73
2021/03/11 09:58:53;;;;;;;16.73;3.33;;;12.50;72.00;;;;;;4897164;29;20053;-73
2021/03/11 10:01:32;;;;;;;21.35;3.55;;;12.50;71.60;;;;;;4894584;29;20045;-73
2021/03/11 10:04:20;;;;;;;15.55;2.55;;;12.50;71.40;;;;;;4896586;29;20045;-78
2021/03/11 10:06:59;;;;;;;17.33;2.55;;;12.40;71.10;;;;;;4899822;29;20045;-78
2021/03/11 10:09:39;;;;;;;18.17;3.67;;;12.40;71.80;;;;;;4911469;29;20036;-77
2021/03/11 10:12:07;;;;;;;23.23;3.78;;;12.40;72.10;;;;;;4898576;29;20052;-78
2021/03/11 10:14:34;;;;;;;13.52;2.95;;;12.40;71.50;;;;;;4899031;29;20041;-77
2021/03/11 10:17:04;;;;;;;17.85;3.30;;;12.30;71.10;;;;;;4899892;29;20413;-78
2021/03/11 10:19:36;;;;;;;13.15;2.63;;;12.30;71.90;;;;;;4898156;29;20135;-81
2021/03/11 10:22:06;;;;;;;13.68;2.60;;;12.30;73.40;;;;;;4881689;29;20052;-78
2021/03/11 10:24:49;;;;;;;16.77;3.67;;;12.30;71.30;;;;;;4897904;29;20049;-79
2021/03/11 10:27:25;;;;;;;17.85;3.92;;;12.30;71.30;;;;;;4898379;29;20426;-77
2021/03/11 10:30:13;;;;;;;21.50;3.65;;;12.30;70.10;;;;;;4897935;29;20055;-76
2021/03/11 10:32:50;;;;;;;22.05;3.13;;;12.40;70.10;;;;;;4896923;29;20405;-76
2021/03/11 10:35:38;;;;;;;19.55;3.00;;;12.40;70.10;;;;;;4895172;29;20045;-76
2021/03/11 10:38:24;;;;;;;16.50;2.58;;;12.40;70.40;;;;;;4896189;29;20249;-77
2021/03/11 10:40:52;;;;;;;16.80;2.88;;;12.40;70.40;;;;;;4895992;29;20445;-76
2021/03/11 10:43:25;;;;;;;12.88;3.05;;;12.40;70.10;;;;;;4880551;29;20089;-76
2021/03/11 10:45:51;;;;;;;16.20;3.50;;;12.40;70.50;;;;;;4897944;29;20493;-77
2021/03/11 10:48:19;;;;;;;11.07;2.40;;;12.40;71.40;;;;;;4897473;29;20041;-75
2021/03/11 10:50:48;;;;;;;29.35;5.75;;;12.50;71.40;;;;;;4896124;29;20048;-75
2021/03/11 10:53:16;;;;;;;14.80;3.22;;;12.60;70.40;;;;;;4895239;29;20560;-77
2021/03/11 10:55:44;;;;;;;17.80;3.10;;;12.60;70.30;;;;;;4889366;29;20044;-78
2021/03/11 10:58:27;;;;;;;11.75;2.30;;;12.60;69.90;;;;;;4895935;29;20040;-77
2021/03/11 11:01:13;;;;;;;14.38;2.83;;;12.60;70.00;;;;;;4887627;29;20178;-76
2021/03/11 11:03:40;;;;;;;22.42;3.42;;;12.50;69.70;;;;;;4897310;29;20044;-76
2021/03/11 11:06:08;;;;;;;19.95;3.22;;;12.50;69.60;;;;;;4898090;29;20043;-77
2021/03/11 11:08:37;;;;;;;21.67;3.17;;;12.30;70.70;;;;;;4897538;29;20122;-72
2021/03/11 11:11:03;;;;;;;15.02;2.58;;;12.20;71.90;;;;;;4896859;29;20088;-72
2021/03/11 11:13:30;;;;;;;14.48;2.88;;;12.10;72.20;;;;;;4895717;29;20533;-72
2021/03/11 11:15:57;;;;;;;12.52;2.40;;;12.10;71.70;;;;;;4896791;29;20056;-72
2021/03/11 11:18:24;;;;;;;11.98;2.38;;;12.10;73.20;;;;;;4896268;29;20053;-75
2021/03/11 11:20:51;;;;;;;14.35;3.80;;;12.20;72.30;;;;;;4897322;29;20111;-76
2021/03/11 11:23:18;;;;;;;13.35;2.40;;;12.10;71.90;;;;;;4897432;29;20112;-76
2021/03/11 11:25:44;;;;;;;14.65;2.92;;;12.10;71.40;;;;;;4896196;29;20401;-76
2021/03/11 11:28:11;;;;;;;13.57;2.30;;;12.10;70.80;;;;;;4895924;29;20121;-76
2021/03/11 11:30:38;;;;;;;12.93;2.78;;;12.10;71.20;;;;;;4897660;29;20049;-78
2021/03/11 11:33:06;;;;;;;15.02;3.05;;;12.20;69.80;;;;;;4895863;29;20135;-77
2021/03/11 11:35:33;;;;;;;17.55;2.53;;;12.30;69.70;;;;;;4896895;29;20096;-77
2021/03/11 11:37:59;;;;;;;16.33;2.30;;;12.40;69.10;;;;;;4896740;29;20198;-76
2021/03/11 11:40:26;;;;;;;15.57;3.00;;;12.50;69.20;;;;;;4896173;29;20071;-76
2021/03/11 11:42:53;;;;;;;16.58;3.15;;;12.60;68.70;;;;;;4897734;29;20044;-76
2021/03/11 11:45:19;;;;;;;12.93;2.50;;;12.60;67.50;;;;;;4896732;29;20041;-77
2021/03/11 11:47:46;;;;;;;15.38;2.83;;;12.60;68.00;;;;;;4896262;29;20037;-78
2021/03/11 11:50:13;;;;;;;13.88;2.38;;;12.60;67.40;;;;;;4895966;29;20564;-77
2021/03/11 11:52:41;;;;;;;12.75;2.60;;;12.60;67.10;;;;;;4897923;29;20513;-76
2021/03/11 11:55:12;;;;;;;7.43;1.90;;;12.70;68.10;;;;;;4881200;29;20072;-77
2021/03/11 11:57:40;;;;;;;14.70;2.40;;;12.80;67.90;;;;;;4897480;29;20049;-71
2021/03/11 12:00:10;;;;;;;9.73;2.42;;;12.80;67.80;;;;;;4891135;29;20104;-71
2021/03/11 12:02:36;;;;;;;16.15;2.70;;;12.80;68.00;;;;;;4896642;29;20896;-71
2021/03/11 12:05:06;;;;;;;16.58;2.28;;;12.80;67.90;;;;;;4879648;29;20044;-71
2021/03/11 12:07:32;;;;;;;14.27;2.67;;;12.80;67.80;;;;;;4896538;29;20516;-71
2021/03/11 12:09:59;;;;;;;17.95;2.42;;;12.80;67.70;;;;;;4895192;29;20049;-71
2021/03/11 12:12:26;;;;;;;16.63;2.83;;;12.80;67.70;;;;;;4896541;29;20067;-71
2021/03/11 12:14:52;;;;;;;12.02;2.33;;;12.80;68.10;;;;;;4896286;29;20044;-73
2021/03/11 12:17:19;;;;;;;16.42;1.98;;;12.80;68.10;;;;;;4895385;29;20453;-72
2021/03/11 12:19:46;;;;;;;25.30;4.10;;;12.90;67.10;;;;;;4896731;29;20071;-72
2021/03/11 12:22:13;;;;;;;13.93;2.53;;;12.90;66.30;;;;;;4897339;29;20083;-75
2021/03/11 12:24:40;;;;;;;11.93;2.00;;;12.80;66.70;;;;;;4894427;29;20044;-75
2021/03/11 12:27:06;;;;;;;11.35;1.55;;;12.80;67.30;;;;;;4896220;29;20043;-76
2021/03/11 12:29:33;;;;;;;8.75;2.13;;;12.80;67.20;;;;;;4896179;29;20493;-75
2021/03/11 12:32:00;;;;;;;13.25;2.20;;;12.70;67.00;;;;;;4892990;29;20040;-76
2021/03/11 12:34:27;;;;;;;11.20;1.98;;;12.70;67.60;;;;;;4881162;29;20066;-76
2021/03/11 12:36:54;;;;;;;11.23;1.98;;;12.70;67.80;;;;;;4896188;29;20497;-75
2021/03/11 12:39:20;;;;;;;9.85;2.33;;;12.80;67.50;;;;;;4880820;29;20048;-75
2021/03/11 12:41:47;;;;;;;11.30;1.63;;;12.80;67.50;;;;;;4896712;29;20100;-72
2021/03/11 12:44:14;;;;;;;8.32;1.52;;;13.00;68.40;;;;;;4897800;29;20045;-72
2021/03/11 12:46:40;;;;;;;12.88;2.65;;;13.10;67.90;;;;;;4883628;29;20146;-72
2021/03/11 12:49:09;;;;;;;9.25;2.20;;;13.10;67.60;;;;;;4883453;29;20048;-71
2021/03/11 12:51:37;;;;;;;12.23;2.42;;;13.00;68.00;;;;;;4898547;29;20052;-71
2021/03/11 12:54:05;;;;;;;15.30;2.40;;;13.00;68.10;;;;;;4899755;29;20040;-72
2021/03/11 12:56:31;;;;;;;12.20;2.25;;;13.00;67.30;;;;;;4898297;29;20041;-72